createdAt,value
2023-08-23T00:01:17.250Z,99780.50
2023-08-23T00:03:53.200Z,99782.28
2023-08-23T00:06:20.709Z,99782.66
2023-08-23T00:08:48.291Z,99784.84
2023-08-23T00:11:15.822Z,99780.91
2023-08-23T00:13:43.440Z,99786.38
2023-08-23T00:16:10.810Z,99775.78
2023-08-23T00:18:39.859Z,99780.78
2023-08-23T00:21:07.423Z,99779.59
2023-08-23T00:23:35.351Z,99777.97
2023-08-23T00:26:02.588Z,99777.06
2023-08-23T00:28:30.223Z,99776.91
2023-08-23T00:30:57.714Z,99788.75
2023-08-23T00:33:26.864Z,99787.91
2023-08-23T00:35:55.542Z,99781.31
2023-08-23T00:38:23.941Z,99781.28
2023-08-23T00:40:51.406Z,99780.97
2023-08-23T00:43:19.837Z,99791.13
2023-08-23T00:45:48.217Z,99792.53
2023-08-23T00:48:15.948Z,99785.09
2023-08-23T00:50:46.643Z,99784.94
2023-08-23T00:53:15.446Z,99779.31
2023-08-23T00:55:42.953Z,99779.56
2023-08-23T00:58:10.900Z,99777.22
2023-08-23T01:00:40.726Z,99769.63
2023-08-23T01:03:10.938Z,99766.63
2023-08-23T01:05:50.332Z,99776.72
2023-08-23T01:08:59.676Z,99766.06
2023-08-23T01:11:46.438Z,99769.00
2023-08-23T01:14:46.142Z,99769.81
2023-08-23T01:17:17.113Z,99766.75
2023-08-23T01:19:49.059Z,99767.53
2023-08-23T01:22:25.400Z,99763.06
2023-08-23T01:24:53.531Z,99755.56
2023-08-23T01:27:21.508Z,99744.56
2023-08-23T01:29:49.538Z,99761.66
2023-08-23T01:32:45.111Z,99747.03
2023-08-23T01:35:20.798Z,99758.56
2023-08-23T01:37:52.341Z,99763.53
2023-08-23T01:40:20.510Z,99768.53
2023-08-23T01:42:49.348Z,99764.50
2023-08-23T01:45:20.383Z,99763.13
2023-08-23T01:47:49.233Z,99756.25
2023-08-23T01:50:17.084Z,99764.28
2023-08-23T01:52:44.306Z,99761.09
2023-08-23T01:55:12.471Z,99759.53
2023-08-23T01:57:41.474Z,99753.31
2023-08-23T02:00:10.270Z,99759.50
2023-08-23T02:02:41.985Z,99748.59
2023-08-23T02:05:09.899Z,99765.19
2023-08-23T02:07:37.601Z,99749.84
2023-08-23T02:10:05.831Z,99763.97
2023-08-23T02:12:33.004Z,99756.25
2023-08-23T02:15:00.720Z,99757.69
2023-08-23T02:17:28.900Z,99757.84
2023-08-23T02:19:58.730Z,99742.69
2023-08-23T02:22:26.032Z,99751.16
2023-08-23T02:24:53.902Z,99759.34
2023-08-23T02:27:21.149Z,99756.09
2023-08-23T02:29:48.746Z,99750.38
2023-08-23T02:32:16.179Z,99754.53
2023-08-23T02:34:43.706Z,99748.56
2023-08-23T02:37:10.948Z,99753.69
2023-08-23T02:39:38.738Z,99757.38
2023-08-23T02:42:06.726Z,99743.63
2023-08-23T02:44:34.593Z,99726.06
2023-08-23T02:47:01.926Z,99739.63
2023-08-23T02:49:29.565Z,99733.34
2023-08-23T02:51:56.974Z,99737.66
2023-08-23T02:54:24.571Z,99736.75
2023-08-23T02:56:51.929Z,99735.16
2023-08-23T02:59:19.583Z,99742.50
2023-08-23T03:01:48.254Z,99736.31
2023-08-23T03:04:16.047Z,99737.09
2023-08-23T03:06:44.791Z,99739.31
2023-08-23T03:09:12.434Z,99743.28
2023-08-23T03:11:39.755Z,99750.81
2023-08-23T03:14:09.632Z,99749.16
2023-08-23T03:16:37.077Z,99739.25
2023-08-23T03:19:04.639Z,99742.28
2023-08-23T03:21:32.227Z,99746.44
2023-08-23T03:24:00.166Z,99736.22
2023-08-23T03:26:28.973Z,99740.66
2023-08-23T03:28:59.374Z,99735.31
2023-08-23T03:31:27.891Z,99739.25
2023-08-23T03:33:55.738Z,99733.72
2023-08-23T03:36:23.675Z,99742.78
2023-08-23T03:38:51.302Z,99747.94
2023-08-23T03:41:18.635Z,99748.50
2023-08-23T03:43:46.841Z,99742.06
2023-08-23T03:46:15.011Z,99759.53
2023-08-23T03:48:42.804Z,99750.53
2023-08-23T03:51:10.114Z,99752.63
2023-08-23T03:53:37.854Z,99758.84
2023-08-23T03:56:05.641Z,99754.63
2023-08-23T03:58:33.294Z,99756.69
2023-08-23T04:01:00.544Z,99762.25
2023-08-23T04:03:28.436Z,99755.97
2023-08-23T04:05:55.979Z,99747.81
2023-08-23T04:08:23.872Z,99755.88
2023-08-23T04:10:51.715Z,99757.84
2023-08-23T04:13:19.435Z,99736.81
2023-08-23T04:15:47.104Z,99751.34
2023-08-23T04:18:15.328Z,99759.19
2023-08-23T04:20:42.836Z,99766.88
2023-08-23T04:23:10.811Z,99760.38
2023-08-23T04:25:38.301Z,99746.41
2023-08-23T04:28:06.450Z,99768.34
2023-08-23T04:30:33.806Z,99760.59
2023-08-23T04:33:02.620Z,99764.69
2023-08-23T04:35:30.035Z,99774.59
2023-08-23T04:37:58.676Z,99773.09
2023-08-23T04:40:27.016Z,99769.72
2023-08-23T04:42:57.118Z,99772.75
2023-08-23T04:45:27.713Z,99781.94
2023-08-23T04:47:56.303Z,99776.44
2023-08-23T04:50:23.699Z,99783.81
2023-08-23T04:52:52.953Z,99779.50
2023-08-23T04:55:21.063Z,99780.44
2023-08-23T04:57:48.973Z,99784.78
2023-08-23T05:00:17.016Z,99783.38
2023-08-23T05:02:44.889Z,99787.78
2023-08-23T05:05:13.501Z,99783.59
2023-08-23T05:07:41.188Z,99785.44
2023-08-23T05:10:09.402Z,99790.50
2023-08-23T05:12:37.018Z,99792.25
2023-08-23T05:15:05.666Z,99789.78
2023-08-23T05:17:33.332Z,99785.28
2023-08-23T05:20:02.015Z,99787.44
2023-08-23T05:22:32.226Z,99786.41
2023-08-23T05:24:59.511Z,99789.91
2023-08-23T05:27:27.258Z,99788.59
2023-08-23T05:29:55.385Z,99789.91
2023-08-23T05:32:23.722Z,99793.81
2023-08-23T05:34:51.993Z,99777.63
2023-08-23T05:37:20.865Z,99787.69
2023-08-23T05:39:51.644Z,99786.94
2023-08-23T05:42:19.970Z,99793.25
2023-08-23T05:44:47.741Z,99795.41
2023-08-23T05:47:15.646Z,99785.94
2023-08-23T05:49:44.063Z,99781.47
2023-08-23T05:52:14.623Z,99788.16
2023-08-23T05:54:42.844Z,99789.19
2023-08-23T05:57:10.493Z,99798.28
2023-08-23T05:59:37.763Z,99806.00
2023-08-23T06:02:05.643Z,99796.38
2023-08-23T06:04:33.606Z,99798.97
2023-08-23T06:07:01.345Z,99790.34
2023-08-23T06:09:28.638Z,99799.00
2023-08-23T06:11:58.339Z,99802.69
2023-08-23T06:14:28.743Z,99796.06
2023-08-23T06:16:57.182Z,99801.94
2023-08-23T06:19:24.615Z,99805.44
2023-08-23T06:21:53.515Z,99800.13
2023-08-23T06:24:22.078Z,99802.22
2023-08-23T06:26:52.045Z,99795.66
2023-08-23T06:29:21.001Z,99793.69
2023-08-23T06:31:48.674Z,99801.38
2023-08-23T06:34:15.980Z,99806.81
2023-08-23T06:36:44.752Z,99795.63
2023-08-23T06:39:23.895Z,99803.81
2023-08-23T06:42:02.555Z,99804.94
2023-08-23T06:44:31.302Z,99814.47
2023-08-23T06:46:58.956Z,99818.97
2023-08-23T06:49:26.512Z,99812.69
2023-08-23T06:51:55.159Z,99802.59
2023-08-23T06:54:22.515Z,99813.91
2023-08-23T06:56:50.199Z,99819.53
2023-08-23T06:59:18.181Z,99770.22
2023-08-23T07:01:47.876Z,99810.06
2023-08-23T07:04:16.367Z,99809.63
2023-08-23T07:06:44.231Z,99817.44
2023-08-23T07:09:11.905Z,99820.41
2023-08-23T07:11:39.988Z,99813.63
2023-08-23T07:14:08.177Z,99821.09
2023-08-23T07:16:36.276Z,99817.66
2023-08-23T07:19:04.740Z,99822.19
2023-08-23T07:21:34.655Z,99824.69
2023-08-23T07:24:04.065Z,99823.59
2023-08-23T07:26:35.213Z,99824.50
2023-08-23T07:29:03.544Z,99822.25
2023-08-23T07:31:31.156Z,99822.22
2023-08-23T07:33:58.355Z,99830.63
2023-08-23T07:36:26.691Z,99815.31
2023-08-23T07:38:55.230Z,99822.59
2023-08-23T07:41:22.785Z,99825.13
2023-08-23T07:43:50.197Z,99833.00
2023-08-23T07:46:17.962Z,99829.34
2023-08-23T07:48:45.365Z,99828.28
2023-08-23T07:51:13.061Z,99833.84
2023-08-23T07:53:43.168Z,99827.34
2023-08-23T07:56:15.625Z,99833.97
2023-08-23T07:58:44.377Z,99835.28
2023-08-23T08:01:12.057Z,99827.63
2023-08-23T08:03:40.702Z,99835.28
2023-08-23T08:06:08.303Z,99834.78
2023-08-23T08:08:40.586Z,99828.81
2023-08-23T08:11:08.368Z,99829.63
2023-08-23T08:13:35.589Z,99829.81
2023-08-23T08:16:14.188Z,99843.09
2023-08-23T08:18:44.338Z,99839.97
2023-08-23T08:21:12.302Z,99839.66
2023-08-23T08:23:39.750Z,99839.84
2023-08-23T08:26:09.023Z,99836.47
2023-08-23T08:28:36.422Z,99827.13
2023-08-23T08:31:03.976Z,99819.97
2023-08-23T08:33:31.373Z,99830.06
2023-08-23T08:35:58.912Z,99826.09
2023-08-23T08:38:26.140Z,99823.13
2023-08-23T08:40:55.958Z,99818.09
2023-08-23T08:43:24.348Z,99827.69
2023-08-23T08:45:52.096Z,99836.38
2023-08-23T08:48:19.428Z,99813.41
2023-08-23T08:50:47.920Z,99845.50
2023-08-23T08:53:17.345Z,99833.16
2023-08-23T08:55:48.822Z,99845.31
2023-08-23T08:58:21.152Z,99844.63
2023-08-23T09:00:50.400Z,99837.34
2023-08-23T09:03:21.604Z,99837.59
2023-08-23T09:05:50.000Z,99836.06
2023-08-23T09:08:17.991Z,99830.69
2023-08-23T09:10:45.630Z,99837.59
2023-08-23T09:13:13.202Z,99837.78
2023-08-23T09:15:40.932Z,99842.31
2023-08-23T09:18:08.268Z,99828.34
2023-08-23T09:20:37.049Z,99832.84
2023-08-23T09:23:04.814Z,99836.75
2023-08-23T09:25:32.386Z,99837.59
2023-08-23T09:28:01.002Z,99835.44
2023-08-23T09:30:28.627Z,99839.84
2023-08-23T09:32:58.670Z,99848.56
2023-08-23T09:35:27.237Z,99838.13
2023-08-23T09:37:55.274Z,99839.88
2023-08-23T09:40:30.297Z,99833.88
2023-08-23T09:42:59.895Z,99818.09
2023-08-23T09:45:28.931Z,99827.19
2023-08-23T09:47:59.798Z,99828.06
2023-08-23T09:50:28.457Z,99828.53
2023-08-23T09:53:02.725Z,99825.66
2023-08-23T09:55:31.628Z,99831.41
2023-08-23T09:58:00.080Z,99828.66
2023-08-23T10:00:28.679Z,99832.94
2023-08-23T10:03:00.167Z,99827.41
2023-08-23T10:05:29.016Z,99822.81
2023-08-23T10:07:58.515Z,99824.94
2023-08-23T10:10:27.609Z,99825.50
2023-08-23T10:13:00.716Z,99818.53
2023-08-23T10:15:31.305Z,99827.84
2023-08-23T10:18:01.338Z,99807.13
2023-08-23T10:20:29.779Z,99809.47
2023-08-23T10:22:57.841Z,99812.22
2023-08-23T10:25:25.514Z,99803.84
2023-08-23T10:27:57.541Z,99808.31
2023-08-23T10:30:30.004Z,99800.16
2023-08-23T10:33:10.022Z,99799.59
2023-08-23T10:35:38.820Z,99799.69
2023-08-23T10:38:07.267Z,99802.63
2023-08-23T10:40:36.649Z,99800.84
2023-08-23T10:43:11.074Z,99802.34
2023-08-23T10:45:59.098Z,99801.44
2023-08-23T10:48:26.492Z,99795.72
2023-08-23T10:50:57.053Z,99791.47
2023-08-23T10:53:28.510Z,99788.22
2023-08-23T10:56:01.199Z,99784.28
2023-08-23T10:58:28.581Z,99786.41
2023-08-23T11:00:57.028Z,99781.47
2023-08-23T11:03:25.694Z,99785.19
2023-08-23T11:05:53.977Z,99771.25
2023-08-23T11:08:23.298Z,99771.22
2023-08-23T11:10:51.524Z,99766.38
2023-08-23T11:13:18.853Z,99771.28
2023-08-23T11:15:46.543Z,99770.94
2023-08-23T11:18:14.797Z,99766.09
2023-08-23T11:20:43.106Z,99749.94
2023-08-23T11:23:11.159Z,99750.66
2023-08-23T11:25:39.255Z,99752.38
2023-08-23T11:28:07.392Z,99741.06
2023-08-23T11:30:35.218Z,99749.28
2023-08-23T11:33:04.543Z,99747.22
2023-08-23T11:35:32.219Z,99740.97
2023-08-23T11:37:59.477Z,99741.44
2023-08-23T11:40:27.186Z,99736.06
2023-08-23T11:43:11.997Z,99736.19
2023-08-23T11:45:44.676Z,99730.28
2023-08-23T11:48:12.259Z,99732.41
2023-08-23T11:50:40.302Z,99734.72
2023-08-23T11:53:10.333Z,99729.13
2023-08-23T11:55:38.398Z,99715.09
2023-08-23T11:58:07.726Z,99727.31
2023-08-23T12:00:35.354Z,99716.88
2023-08-23T12:03:03.787Z,99714.00
2023-08-23T12:05:31.593Z,99716.06
2023-08-23T12:07:59.200Z,99717.69
2023-08-23T12:10:27.294Z,99716.03
2023-08-23T12:12:55.535Z,99706.22
2023-08-23T12:15:22.958Z,99704.63
2023-08-23T12:17:50.906Z,99703.06
2023-08-23T12:20:18.821Z,99703.91
2023-08-23T12:22:47.577Z,99690.13
2023-08-23T12:25:15.542Z,99695.00
2023-08-23T12:27:44.140Z,99679.75
2023-08-23T12:30:11.490Z,99684.53
2023-08-23T12:32:39.096Z,99684.53
2023-08-23T12:35:07.326Z,99670.03
2023-08-23T12:37:34.882Z,99673.72
2023-08-23T12:40:02.137Z,99668.06
2023-08-23T12:42:34.617Z,99670.38
2023-08-23T12:45:03.934Z,99655.56
2023-08-23T12:47:31.517Z,99665.78
2023-08-23T12:49:58.954Z,99655.81
2023-08-23T12:52:26.814Z,99652.94
2023-08-23T12:54:54.161Z,99659.59
2023-08-23T12:57:21.796Z,99673.00
2023-08-23T12:59:49.107Z,99659.84
2023-08-23T13:02:16.802Z,99646.75
2023-08-23T13:04:44.556Z,99657.72
2023-08-23T13:07:12.193Z,99650.09
2023-08-23T13:09:39.371Z,99661.31
2023-08-23T13:12:07.322Z,99656.63
2023-08-23T13:14:34.607Z,99643.25
2023-08-23T13:17:02.197Z,99655.34
2023-08-23T13:19:31.142Z,99642.34
2023-08-23T13:22:01.490Z,99639.13
2023-08-23T13:24:28.983Z,99639.25
2023-08-23T13:26:56.620Z,99647.38
2023-08-23T13:29:23.856Z,99639.78
2023-08-23T13:31:52.069Z,99638.66
2023-08-23T13:34:19.391Z,99639.22
2023-08-23T13:36:47.028Z,99627.16
2023-08-23T13:39:14.359Z,99622.84
2023-08-23T13:41:42.257Z,99622.72
2023-08-23T13:44:09.677Z,99615.06
2023-08-23T13:46:37.454Z,99621.22
2023-08-23T13:49:04.747Z,99629.91
2023-08-23T13:51:32.346Z,99619.03
2023-08-23T13:53:59.914Z,99610.59
2023-08-23T13:56:27.581Z,99609.09
2023-08-23T13:58:56.874Z,99617.25
2023-08-23T14:01:26.245Z,99609.75
2023-08-23T14:03:54.269Z,99618.16
2023-08-23T14:06:21.855Z,99610.50
2023-08-23T14:08:50.944Z,99609.69
2023-08-23T14:11:18.589Z,99610.16
2023-08-23T14:13:45.950Z,99625.88
2023-08-23T14:16:13.682Z,99613.28
2023-08-23T14:18:41.984Z,99613.31
2023-08-23T14:21:10.265Z,99616.69
2023-08-23T14:23:37.776Z,99609.19
2023-08-23T14:26:05.590Z,99623.19
2023-08-23T14:28:32.890Z,99620.88
2023-08-23T14:31:00.955Z,99605.69
2023-08-23T14:33:28.328Z,99611.25
2023-08-23T14:35:56.226Z,99617.94
2023-08-23T14:38:23.547Z,99604.47
2023-08-23T14:40:56.782Z,99609.66
2023-08-23T14:43:24.530Z,99607.50
2023-08-23T14:45:52.101Z,99601.06
2023-08-23T14:48:19.691Z,99607.22
2023-08-23T14:50:47.407Z,99601.91
2023-08-23T14:53:14.806Z,99597.53
2023-08-23T14:55:42.624Z,99598.47
2023-08-23T14:58:09.833Z,99598.28
2023-08-23T15:00:41.027Z,99594.16
2023-08-23T15:03:08.604Z,99600.75
2023-08-23T15:05:38.058Z,99590.34
2023-08-23T15:08:07.236Z,99589.69
2023-08-23T15:10:36.406Z,99590.38
2023-08-23T15:13:04.279Z,99589.63
2023-08-23T15:15:31.814Z,99588.84
2023-08-23T15:17:59.162Z,99597.31
2023-08-23T15:20:26.731Z,99592.00
2023-08-23T15:22:54.027Z,99590.00
2023-08-23T15:25:22.979Z,99600.06
2023-08-23T15:27:52.298Z,99600.47
2023-08-23T15:30:20.082Z,99588.69
2023-08-23T15:32:47.517Z,99567.47
2023-08-23T15:35:15.134Z,99571.69
2023-08-23T15:37:42.399Z,99582.31
2023-08-23T15:40:12.434Z,99581.41
2023-08-23T15:42:40.290Z,99567.09
2023-08-23T15:45:08.300Z,99580.50
2023-08-23T15:47:36.527Z,99570.97
2023-08-23T15:50:05.392Z,99564.47
2023-08-23T15:52:33.018Z,99575.44
2023-08-23T15:55:00.805Z,99574.69
2023-08-23T15:57:28.054Z,99577.50
2023-08-23T15:59:55.786Z,99560.59
2023-08-23T16:02:25.624Z,99558.44
2023-08-23T16:04:53.626Z,99562.69
2023-08-23T16:07:20.836Z,99559.41
2023-08-23T16:09:48.430Z,99554.75
2023-08-23T16:12:15.624Z,99561.63
2023-08-23T16:14:43.131Z,99555.72
2023-08-23T16:17:10.394Z,99557.91
2023-08-23T16:19:39.015Z,99562.28
2023-08-23T16:22:06.649Z,99558.88
2023-08-23T16:24:34.657Z,99568.13
2023-08-23T16:27:02.165Z,99536.63
2023-08-23T16:29:29.708Z,99557.38
2023-08-23T16:31:57.006Z,99560.09
2023-08-23T16:34:24.603Z,99567.16
2023-08-23T16:36:51.927Z,99573.25
2023-08-23T16:39:19.485Z,99567.66
2023-08-23T16:41:47.074Z,99564.59
2023-08-23T16:44:14.821Z,99576.00
2023-08-23T16:46:42.740Z,99570.34
2023-08-23T16:49:10.381Z,99584.94
2023-08-23T16:51:38.005Z,99598.94
2023-08-23T16:54:05.590Z,99606.22
2023-08-23T16:56:33.006Z,99598.13
2023-08-23T16:59:00.617Z,99614.75
2023-08-23T17:01:27.985Z,99608.59
2023-08-23T17:03:55.942Z,99611.97
2023-08-23T17:06:23.232Z,99607.22
2023-08-23T17:08:50.815Z,99589.09
2023-08-23T17:11:18.132Z,99608.16
2023-08-23T17:13:45.717Z,99597.06
2023-08-23T17:16:13.100Z,99610.78
2023-08-23T17:18:40.752Z,99596.91
2023-08-23T17:21:08.031Z,99609.69
2023-08-23T17:23:36.742Z,99608.69
2023-08-23T17:26:04.103Z,99603.63
2023-08-23T17:28:32.135Z,99600.38
2023-08-23T17:31:00.799Z,99610.66
2023-08-23T17:33:28.391Z,99605.41
2023-08-23T17:35:55.581Z,99610.28
2023-08-23T17:38:23.211Z,99615.59
2023-08-23T17:40:52.401Z,99610.44
2023-08-23T17:43:20.119Z,99613.94
2023-08-23T17:45:48.103Z,99622.59
2023-08-23T17:48:16.469Z,99615.09
2023-08-23T17:50:43.826Z,99612.56
2023-08-23T17:53:11.448Z,99607.38
2023-08-23T17:55:38.887Z,99603.13
2023-08-23T17:58:07.103Z,99623.47
2023-08-23T18:00:34.746Z,99620.03
2023-08-23T18:03:02.563Z,99619.56
2023-08-23T18:05:29.979Z,99618.59
2023-08-23T18:07:58.269Z,99626.09
2023-08-23T18:10:25.489Z,99630.56
2023-08-23T18:12:53.776Z,99636.63
2023-08-23T18:15:21.499Z,99636.81
2023-08-23T18:17:49.420Z,99630.09
2023-08-23T18:20:19.015Z,99628.78
2023-08-23T18:22:47.226Z,99633.34
2023-08-23T18:25:15.191Z,99631.38
2023-08-23T18:27:42.888Z,99649.06
2023-08-23T18:30:10.516Z,99644.31
2023-08-23T18:32:38.180Z,99657.22
2023-08-23T18:35:06.055Z,99665.22
2023-08-23T18:37:33.670Z,99658.19
2023-08-23T18:40:01.136Z,99662.75
2023-08-23T18:42:49.254Z,99655.53
2023-08-23T18:45:19.633Z,99666.34
2023-08-23T18:47:48.372Z,99664.06
2023-08-23T18:50:16.480Z,99664.06
2023-08-23T18:52:49.562Z,99671.13
2023-08-23T18:55:17.102Z,99668.81
2023-08-23T18:57:50.496Z,99675.31
2023-08-23T19:00:18.493Z,99675.31
2023-08-23T19:02:47.243Z,99677.31
2023-08-23T19:05:20.684Z,99666.50
2023-08-23T19:07:51.343Z,99659.28
2023-08-23T19:10:18.861Z,99675.66
2023-08-23T19:12:46.675Z,99678.56
2023-08-23T19:15:14.241Z,99678.91
2023-08-23T19:17:46.261Z,99686.44
2023-08-23T19:20:14.306Z,99685.28
2023-08-23T19:22:42.139Z,99697.09
2023-08-23T19:25:09.567Z,99698.88
2023-08-23T19:27:37.125Z,99701.31
2023-08-23T19:30:04.927Z,99704.09
2023-08-23T19:32:32.721Z,99697.56
2023-08-23T19:35:00.156Z,99691.91
2023-08-23T19:37:28.799Z,99696.72
2023-08-23T19:39:56.023Z,99697.72
2023-08-23T19:42:24.458Z,99696.56
2023-08-23T19:44:51.981Z,99696.56
2023-08-23T19:47:20.616Z,99715.28
2023-08-23T19:49:47.985Z,99712.34
2023-08-23T19:52:15.457Z,99704.00
2023-08-23T19:54:42.815Z,99720.25
2023-08-23T19:57:11.724Z,99703.94
2023-08-23T19:59:39.048Z,99703.28
2023-08-23T20:02:07.492Z,99700.78
2023-08-23T20:04:35.004Z,99699.31
2023-08-23T20:07:02.798Z,99715.69
2023-08-23T20:09:30.044Z,99707.50
2023-08-23T20:12:00.145Z,99719.78
2023-08-23T20:14:30.880Z,99716.63
2023-08-23T20:17:00.950Z,99714.66
2023-08-23T20:19:28.373Z,99705.94
2023-08-23T20:21:56.011Z,99696.28
2023-08-23T20:24:23.622Z,99712.69
2023-08-23T20:26:51.425Z,99712.94
2023-08-23T20:29:18.672Z,99703.94
2023-08-23T20:31:47.290Z,99700.44
2023-08-23T20:34:14.763Z,99694.94
2023-08-23T20:36:42.496Z,99698.38
2023-08-23T20:39:09.862Z,99699.56
2023-08-23T20:41:37.713Z,99710.50
2023-08-23T20:44:05.274Z,99693.00
2023-08-23T20:46:33.283Z,99701.50
2023-08-23T20:49:00.636Z,99702.03
2023-08-23T20:51:29.457Z,99706.59
2023-08-23T20:53:58.219Z,99696.75
2023-08-23T20:56:26.062Z,99693.69
2023-08-23T20:58:53.362Z,99701.19
2023-08-23T21:01:21.734Z,99701.31
2023-08-23T21:03:49.335Z,99704.81
2023-08-23T21:06:17.108Z,99700.72
2023-08-23T21:08:44.530Z,99702.69
2023-08-23T21:11:12.577Z,99703.19
2023-08-23T21:13:39.868Z,99695.31
2023-08-23T21:16:07.676Z,99693.97
2023-08-23T21:18:35.208Z,99699.28
2023-08-23T21:21:03.463Z,99691.50
2023-08-23T21:23:30.978Z,99689.66
2023-08-23T21:25:58.613Z,99690.91
2023-08-23T21:28:25.866Z,99687.28
2023-08-23T21:30:53.493Z,99684.59
2023-08-23T21:33:23.393Z,99673.44
2023-08-23T21:35:51.416Z,99677.34
2023-08-23T21:38:22.779Z,99688.44
2023-08-23T21:40:59.509Z,99685.78
2023-08-23T21:43:29.929Z,99681.25
2023-08-23T21:45:58.437Z,99675.91
2023-08-23T21:48:25.825Z,99667.69
2023-08-23T21:50:53.596Z,99686.56
2023-08-23T21:53:20.914Z,99677.34
2023-08-23T21:55:54.993Z,99671.81
2023-08-23T21:58:28.751Z,99684.41
2023-08-23T22:01:01.228Z,99680.50
2023-08-23T22:03:30.018Z,99681.19
2023-08-23T22:06:05.071Z,99675.69
2023-08-23T22:08:35.404Z,99681.94
2023-08-23T22:11:12.154Z,99671.81
2023-08-23T22:13:42.673Z,99675.78
2023-08-23T22:16:11.549Z,99671.59
2023-08-23T22:18:39.252Z,99673.66
2023-08-23T22:21:10.360Z,99672.00
2023-08-23T22:23:37.919Z,99661.53
2023-08-23T22:26:05.979Z,99660.41
2023-08-23T22:28:34.330Z,99663.16
2023-08-23T22:31:02.372Z,99665.66
2023-08-23T22:33:29.795Z,99659.22
2023-08-23T22:35:59.073Z,99665.09
2023-08-23T22:38:27.482Z,99655.09
2023-08-23T22:40:57.006Z,99658.78
2023-08-23T22:43:25.496Z,99661.25
2023-08-23T22:45:56.246Z,99650.47
2023-08-23T22:48:23.485Z,99657.47
2023-08-23T22:50:51.964Z,99652.94
2023-08-23T22:53:19.710Z,99652.34
2023-08-23T22:55:47.359Z,99663.22
2023-08-23T22:58:14.701Z,99663.25
2023-08-23T23:00:43.760Z,99676.69
2023-08-23T23:03:11.940Z,99675.19
2023-08-23T23:05:42.782Z,99675.91
2023-08-23T23:08:11.285Z,99685.25
2023-08-23T23:10:39.288Z,99680.53
2023-08-23T23:13:06.635Z,99690.28
2023-08-23T23:15:34.344Z,99684.31
2023-08-23T23:18:01.595Z,99685.22
2023-08-23T23:20:29.572Z,99691.38
2023-08-23T23:22:57.140Z,99681.72
2023-08-23T23:25:26.804Z,99680.41
2023-08-23T23:27:54.145Z,99686.25
2023-08-23T23:30:21.711Z,99680.72
2023-08-23T23:32:49.357Z,99687.69
2023-08-23T23:35:17.205Z,99677.75
2023-08-23T23:37:45.349Z,99677.72
2023-08-23T23:40:16.948Z,99668.59
2023-08-23T23:42:44.481Z,99680.91
2023-08-23T23:45:15.459Z,99680.22
2023-08-23T23:47:43.748Z,99674.56
2023-08-23T23:50:11.427Z,99668.63
2023-08-23T23:52:38.717Z,99672.09
2023-08-23T23:55:06.940Z,99658.78
2023-08-23T23:57:34.593Z,99680.53
